Time;durP1;ratioP1;P1;durP2;ratioP2;P2;SDS_P1;SDS_P2;PMS_P1;PMS_P2;Temp;Humidity;BMP_temperature;BMP_pressure;BME280_temperature;BME280_humidity;BME280_pressure;Samples;Min_cycle;Max_cycle;Signal;HPM_P1;HPM_P2
2022/10/25 00:01:17;;;;;;;8.20;4.57;;;;;;;12.22;100.00;101145.00;6220053;23;20072;-80
2022/10/25 00:03:44;;;;;;;8.38;5.03;;;;;;;12.24;100.00;101144.56;6220435;23;20044;-80
2022/10/25 00:06:11;;;;;;;10.20;5.60;;;;;;;12.23;100.00;101146.47;6192806;23;20117;-80
2022/10/25 00:08:38;;;;;;;11.00;5.55;;;;;;;12.25;100.00;101146.78;6220396;23;20040;-80
2022/10/25 00:11:06;;;;;;;12.23;5.97;;;;;;;12.24;100.00;101145.28;6220392;23;20339;-78
2022/10/25 00:13:33;;;;;;;12.25;5.30;;;;;;;12.24;100.00;101144.56;6219428;23;20343;-80
2022/10/25 00:15:59;;;;;;;10.95;5.60;;;;;;;12.25;100.00;101146.03;6220414;23;20049;-80
2022/10/25 00:18:26;;;;;;;8.23;5.70;;;;;;;12.28;100.00;101142.50;6220082;23;20433;-80
2022/10/25 00:20:52;;;;;;;10.63;5.47;;;;;;;12.29;100.00;101152.00;6220473;23;20031;-80
2022/10/25 00:23:19;;;;;;;10.68;5.13;;;;;;;12.31;100.00;101153.03;6219915;23;20021;-80
2022/10/25 00:25:45;;;;;;;7.05;5.45;;;;;;;12.34;100.00;101154.81;6220260;23;20079;-80
2022/10/25 00:28:12;;;;;;;10.00;5.47;;;;;;;12.37;100.00;101163.13;6219452;23;20072;-80
2022/10/25 00:30:38;;;;;;;8.85;5.60;;;;;;;12.37;100.00;101161.22;6220363;23;20466;-80
2022/10/25 00:33:05;;;;;;;20.13;5.25;;;;;;;12.39;100.00;101158.09;6220269;23;20084;-80
2022/10/25 00:35:35;;;;;;;9.07;5.57;;;;;;;12.42;100.00;101167.88;6219909;23;20021;-80
2022/10/25 00:38:01;;;;;;;8.35;5.13;;;;;;;12.42;100.00;101173.22;6218984;23;20047;-79
2022/10/25 00:40:28;;;;;;;14.23;6.13;;;;;;;12.42;100.00;101168.63;6219261;23;20044;-80
2022/10/25 00:42:54;;;;;;;8.30;5.40;;;;;;;12.44;100.00;101168.19;6218827;23;20044;-79
2022/10/25 00:45:26;;;;;;;9.93;5.63;;;;;;;12.41;100.00;101167.13;6218901;23;20113;-80
2022/10/25 00:48:05;;;;;;;10.80;5.25;;;;;;;12.43;100.00;101172.03;6219608;23;20455;-79
2022/10/25 00:50:38;;;;;;;12.57;5.68;;;;;;;12.44;100.00;101176.19;6220034;23;20072;-80
2022/10/25 00:53:11;;;;;;;9.85;5.78;;;;;;;12.47;100.00;101176.06;6220467;23;20559;-79
2022/10/25 00:55:44;;;;;;;13.70;5.97;;;;;;;12.51;100.00;101178.59;6219671;23;20021;-79
2022/10/25 00:58:16;;;;;;;11.23;5.82;;;;;;;12.53;100.00;101170.88;6193419;23;20402;-79
2022/10/25 01:00:44;;;;;;;;;;;;;;;12.56;100.00;101173.41;6220786;23;20121;-80
2022/10/25 01:03:13;;;;;;;11.00;5.18;;;;;;;12.58;100.00;101178.31;6219903;23;19926;-80
2022/10/25 01:05:39;;;;;;;10.85;5.50;;;;;;;12.61;100.00;101170.16;6219978;23;20109;-79
2022/10/25 01:08:06;;;;;;;12.00;5.35;;;;;;;12.64;100.00;101182.63;6220101;23;20080;-80
2022/10/25 01:10:32;;;;;;;15.30;6.25;;;;;;;12.65;100.00;101173.44;6219055;23;20506;-80
2022/10/25 01:13:00;;;;;;;6.97;5.18;;;;;;;12.66;100.00;101176.84;6219976;23;20093;-80
2022/10/25 01:15:38;;;;;;;11.35;5.45;;;;;;;12.67;100.00;101175.66;6219729;23;20057;-80
2022/10/25 01:18:16;;;;;;;10.77;5.65;;;;;;;12.71;100.00;101178.19;6220046;23;20017;-80
2022/10/25 01:21:13;;;;;;;9.23;5.90;;;;;;;12.73;100.00;101189.19;6220053;23;20024;-80
2022/10/25 01:24:06;;;;;;;8.50;5.53;;;;;;;12.74;100.00;101186.06;6220123;23;20088;-80
2022/10/25 01:26:57;;;;;;;12.40;5.68;;;;;;;12.73;100.00;101189.91;6219644;23;20101;-80
2022/10/25 01:29:42;;;;;;;14.57;5.77;;;;;;;12.75;100.00;101184.88;6219718;23;20076;-80
2022/10/25 01:32:22;;;;;;;15.10;6.00;;;;;;;12.80;100.00;101200.28;6220187;23;20045;-79
2022/10/25 01:34:55;;;;;;;9.90;6.05;;;;;;;12.80;100.00;101202.97;6219929;23;20044;-80
2022/10/25 01:37:28;;;;;;;11.52;6.05;;;;;;;12.82;100.00;101202.53;6219765;23;20486;-80
2022/10/25 01:40:10;;;;;;;18.23;6.00;;;;;;;12.84;100.00;101208.16;6219542;23;20525;-80
2022/10/25 01:42:46;;;;;;;;;;;;;;;12.87;100.00;101202.69;6220570;23;20462;-81
2022/10/25 01:45:36;;;;;;;10.60;5.13;;;;;;;12.89;100.00;101213.66;6219176;23;19920;-81
2022/10/25 01:48:15;;;;;;;12.57;4.82;;;;;;;12.91;100.00;101205.97;6219871;23;20494;-80
2022/10/25 01:50:45;;;;;;;14.13;4.90;;;;;;;12.93;100.00;101216.19;6220004;23;20020;-80
2022/10/25 01:53:12;;;;;;;13.10;5.03;;;;;;;12.92;100.00;101204.78;6219076;23;20080;-80
2022/10/25 01:55:48;;;;;;;19.70;5.15;;;;;;;12.92;100.00;101209.38;6219631;23;20084;-80
2022/10/25 01:58:47;;;;;;;14.82;5.22;;;;;;;12.91;100.00;101197.94;6219349;23;20089;-80
2022/10/25 02:01:22;;;;;;;13.93;4.40;;;;;;;12.92;100.00;101212.03;6068833;23;20019;-80
2022/10/25 02:04:07;;;;;;;14.55;4.93;;;;;;;12.92;100.00;101204.78;6046207;23;20030;-80
2022/10/25 02:06:50;;;;;;;10.68;4.20;;;;;;;12.92;100.00;101212.78;6070006;23;20099;-80
2022/10/25 02:09:26;;;;;;;12.02;4.78;;;;;;;12.91;100.00;101211.31;6069750;23;20024;-80
2022/10/25 02:11:54;;;;;;;12.18;4.75;;;;;;;12.92;100.00;101204.78;6070142;23;20099;-80
2022/10/25 02:14:28;;;;;;;11.98;4.72;;;;;;;12.93;100.00;101210.84;6069797;23;20033;-80
2022/10/25 02:16:56;;;;;;;10.25;4.47;;;;;;;12.93;100.00;101211.59;6070391;23;20095;-80
2022/10/25 02:19:37;;;;;;;13.50;4.43;;;;;;;12.93;100.00;101216.19;6069469;23;20106;-80
2022/10/25 02:22:07;;;;;;;17.63;5.32;;;;;;;12.92;100.00;101210.13;6070501;23;20102;-80
2022/10/25 02:24:35;;;;;;;9.88;4.38;;;;;;;12.93;100.00;101202.84;6069586;23;20051;-80
2022/10/25 02:27:03;;;;;;;15.73;5.15;;;;;;;12.92;100.00;101210.13;6070112;23;20268;-79
2022/10/25 02:29:33;;;;;;;13.35;5.05;;;;;;;12.89;100.00;101213.66;6069722;23;20079;-80
2022/10/25 02:32:02;;;;;;;14.10;4.90;;;;;;;12.88;100.00;101219.47;6069990;23;20133;-80
2022/10/25 02:34:28;;;;;;;10.40;4.20;;;;;;;12.86;100.00;101221.81;6069413;23;20115;-80
2022/10/25 02:36:55;;;;;;;17.13;5.30;;;;;;;12.85;100.00;101221.09;6095508;23;20020;-80
2022/10/25 02:39:24;;;;;;;14.13;4.18;;;;;;;12.82;100.00;101213.22;6220558;23;20358;-80
2022/10/25 02:41:56;;;;;;;12.25;4.50;;;;;;;12.82;100.00;101221.22;6220778;23;20017;-80
2022/10/25 02:44:22;;;;;;;19.35;4.20;;;;;;;12.81;100.00;101220.47;6220529;23;20040;-79
2022/10/25 02:46:48;;;;;;;20.90;4.45;;;;;;;12.81;100.00;101230.44;6220497;23;20021;-80
2022/10/25 02:49:15;;;;;;;9.18;3.95;;;;;;;12.83;100.00;101228.06;6220218;23;20072;-80
2022/10/25 02:51:41;;;;;;;14.63;3.85;;;;;;;12.86;100.00;101235.94;6220097;23;20044;-80
2022/10/25 02:54:08;;;;;;;15.32;4.55;;;;;;;12.86;100.00;101230.59;6220942;23;20351;-80
2022/10/25 02:56:34;;;;;;;13.48;4.03;;;;;;;12.90;100.00;101230.44;6194125;23;20023;-80
2022/10/25 02:59:01;;;;;;;12.80;4.32;;;;;;;12.91;100.00;101235.34;6220645;23;20024;-80
2022/10/25 03:01:27;;;;;;;16.85;4.03;;;;;;;12.93;100.00;101230.31;6220387;23;20041;-79
2022/10/25 03:03:54;;;;;;;14.25;4.65;;;;;;;12.92;100.00;101236.84;6220698;23;20084;-79
2022/10/25 03:06:20;;;;;;;14.82;4.97;;;;;;;12.93;100.00;101232.97;6219600;23;20100;-79
2022/10/25 03:08:47;;;;;;;15.15;4.65;;;;;;;12.94;100.00;101231.78;6220780;23;20100;-79
2022/10/25 03:11:15;;;;;;;9.65;4.18;;;;;;;12.95;100.00;101237.88;6219892;23;20502;-79
2022/10/25 03:13:42;;;;;;;17.77;4.10;;;;;;;12.95;100.00;101243.97;6220730;23;20037;-79
2022/10/25 03:16:08;;;;;;;15.57;4.78;;;;;;;12.98;100.00;101247.69;6220456;23;20017;-79
2022/10/25 03:18:35;;;;;;;16.50;4.97;;;;;;;12.98;100.00;101251.09;6220750;23;20014;-79
2022/10/25 03:21:02;;;;;;;13.38;4.45;;;;;;;12.98;100.00;101251.09;6220210;23;20509;-79
2022/10/25 03:23:29;;;;;;;15.50;4.65;;;;;;;12.98;100.00;101259.13;6220400;23;20431;-79
2022/10/25 03:25:57;;;;;;;12.57;4.80;;;;;;;12.98;100.00;101256.44;6220572;23;20096;-79
2022/10/25 03:28:26;;;;;;;13.20;4.75;;;;;;;12.99;100.00;101255.25;6220220;23;20055;-79
2022/10/25 03:30:54;;;;;;;15.13;4.50;;;;;;;13.00;100.00;101267.44;6220542;23;20092;-79
2022/10/25 03:33:20;;;;;;;14.35;4.13;;;;;;;13.00;100.00;101270.13;6220163;23;20080;-79
2022/10/25 03:35:54;;;;;;;12.40;4.20;;;;;;;13.03;100.00;101268.47;6193722;23;20417;-79
2022/10/25 03:38:21;;;;;;;11.13;4.00;;;;;;;13.03;100.00;101281.84;6220458;23;20170;-79
2022/10/25 03:40:47;;;;;;;8.70;3.92;;;;;;;13.02;100.00;101280.38;6220636;23;20080;-79
2022/10/25 03:43:14;;;;;;;16.38;4.38;;;;;;;13.01;100.00;101284.97;6220245;23;20088;-79
2022/10/25 03:45:40;;;;;;;12.30;4.07;;;;;;;13.01;100.00;101289.56;6219924;23;20041;-81
2022/10/25 03:48:07;;;;;;;21.00;4.32;;;;;;;12.99;100.00;101287.34;6220449;23;20107;-79
2022/10/25 03:50:35;;;;;;;14.77;4.32;;;;;;;12.99;100.00;101286.59;6219455;23;20092;-79
2022/10/25 03:53:02;;;;;;;15.43;4.43;;;;;;;12.98;100.00;101293.88;6220855;23;20009;-79
2022/10/25 03:55:29;;;;;;;12.02;4.00;;;;;;;12.97;100.00;101284.34;6220027;23;20289;-79
2022/10/25 03:57:56;;;;;;;14.45;4.82;;;;;;;12.98;100.00;101291.19;6220608;23;20092;-79
2022/10/25 04:00:22;;;;;;;19.73;5.20;;;;;;;12.99;100.00;101297.28;6220049;23;20084;-79
2022/10/25 04:02:59;;;;;;;12.23;4.72;;;;;;;13.01;100.00;101297.59;6220390;23;20092;-82
2022/10/25 04:05:29;;;;;;;12.05;4.60;;;;;;;13.02;100.00;101301.75;6219381;23;20465;-81
2022/10/25 04:07:55;;;;;;;14.85;4.22;;;;;;;13.02;100.00;101305.16;6220394;23;20088;-81
2022/10/25 04:10:21;;;;;;;13.35;4.80;;;;;;;13.02;100.00;101302.50;6219988;23;20498;-81
2022/10/25 04:12:51;;;;;;;9.75;4.03;;;;;;;13.00;100.00;101310.19;6220271;23;20379;-80
2022/10/25 04:15:20;;;;;;;12.65;4.47;;;;;;;13.02;100.00;101313.19;6219667;23;20047;-81
2022/10/25 04:17:51;;;;;;;16.50;4.63;;;;;;;13.02;100.00;101315.84;6220333;23;20764;-81
2022/10/25 04:20:18;;;;;;;14.63;4.47;;;;;;;13.02;100.00;101318.53;6219177;23;20081;-81
2022/10/25 04:22:44;;;;;;;20.63;5.00;;;;;;;13.02;100.00;101317.78;6220558;23;20530;-81
2022/10/25 04:25:11;;;;;;;12.70;4.43;;;;;;;13.00;100.00;101320.88;6219774;23;20092;-81
2022/10/25 04:27:37;;;;;;;11.50;4.45;;;;;;;13.00;100.00;101318.22;6219974;23;20088;-81
2022/10/25 04:30:04;;;;;;;14.80;4.10;;;;;;;13.02;100.00;101325.78;6220115;23;20017;-81
2022/10/25 04:32:30;;;;;;;17.02;5.30;;;;;;;13.00;100.00;101320.88;6219838;23;20044;-81
2022/10/25 04:34:57;;;;;;;14.05;5.60;;;;;;;13.01;100.00;101340.34;6219367;23;20576;-81
2022/10/25 04:37:23;;;;;;;11.07;5.20;;;;;;;12.99;100.00;101340.03;6193383;23;20104;-82
2022/10/25 04:39:50;;;;;;;19.63;6.18;;;;;;;13.00;100.00;101339.59;6220544;23;20013;-81
2022/10/25 04:42:18;;;;;;;9.98;5.05;;;;;;;12.99;100.00;101326.69;6220047;23;20092;-81
2022/10/25 04:44:44;;;;;;;16.98;5.80;;;;;;;12.97;100.00;101329.03;6220169;23;20052;-81
2022/10/25 04:47:11;;;;;;;15.40;5.63;;;;;;;12.95;100.00;101326.06;6218662;23;20113;-81
2022/10/25 04:49:37;;;;;;;11.38;5.10;;;;;;;12.91;100.00;101323.53;6220040;23;20072;-81
2022/10/25 04:52:04;;;;;;;15.02;5.45;;;;;;;12.89;100.00;101331.25;6220461;23;20104;-82
2022/10/25 04:54:30;;;;;;;16.30;5.28;;;;;;;12.82;100.00;101328.84;6220062;23;20045;-81
2022/10/25 04:56:57;;;;;;;12.15;4.65;;;;;;;12.78;100.00;101336.28;6220244;23;20093;-82
2022/10/25 04:59:23;;;;;;;19.08;5.80;;;;;;;12.77;100.00;101334.03;6219887;23;20085;-81
2022/10/25 05:01:50;;;;;;;10.50;5.43;;;;;;;12.73;100.00;101338.78;6219773;23;20093;-81
2022/10/25 05:04:16;;;;;;;10.70;5.40;;;;;;;12.69;100.00;101336.22;6219807;23;20023;-82
2022/10/25 05:06:42;;;;;;;12.10;4.88;;;;;;;12.65;100.00;101349.72;6193621;23;20025;-81
2022/10/25 05:09:09;;;;;;;14.00;4.95;;;;;;;12.63;100.00;101348.66;6193390;23;20056;-80
2022/10/25 05:11:35;;;;;;;10.70;4.53;;;;;;;12.64;100.00;101355.50;6220336;23;20055;-80
2022/10/25 05:14:02;;;;;;;11.60;4.53;;;;;;;12.65;100.00;101354.31;6168309;23;20013;-80
2022/10/25 05:16:28;;;;;;;9.07;4.40;;;;;;;12.63;100.00;101354.75;6218923;23;20024;-81
2022/10/25 05:18:54;;;;;;;10.20;4.55;;;;;;;12.65;100.00;101355.06;6220013;23;20442;-80
2022/10/25 05:21:27;;;;;;;9.43;4.38;;;;;;;12.67;100.00;101354.63;6219688;23;20502;-80
2022/10/25 05:23:53;;;;;;;10.73;4.20;;;;;;;12.67;100.00;101358.03;6220037;23;20040;-80
2022/10/25 05:26:26;;;;;;;15.40;4.68;;;;;;;12.68;100.00;101364.13;6219511;23;20060;-80
2022/10/25 05:28:53;;;;;;;17.35;4.40;;;;;;;12.67;100.00;101363.38;6220028;23;20092;-80
2022/10/25 05:31:22;;;;;;;11.95;4.45;;;;;;;12.68;100.00;101364.88;6192427;23;20574;-80
2022/10/25 05:33:51;;;;;;;10.60;4.32;;;;;;;12.69;100.00;101368.28;6219893;23;20096;-80
2022/10/25 05:36:18;;;;;;;11.55;4.15;;;;;;;12.68;100.00;101367.53;6222735;23;20093;-80
2022/10/25 05:38:45;;;;;;;13.38;4.10;;;;;;;12.69;100.00;101362.94;6223502;23;20013;-80
2022/10/25 05:41:13;;;;;;;9.85;4.47;;;;;;;12.70;100.00;101364.44;6222469;23;20044;-80
2022/10/25 05:43:41;;;;;;;9.23;4.05;;;;;;;12.70;100.00;101380.47;6223039;23;20019;-80
2022/10/25 05:46:17;;;;;;;9.40;4.13;;;;;;;12.71;100.00;101375.84;6221892;23;20065;-80
2022/10/25 05:48:43;;;;;;;15.85;4.47;;;;;;;12.71;100.00;101373.94;6223142;23;20013;-81
2022/10/25 05:51:21;;;;;;;8.10;4.10;;;;;;;12.70;100.00;101383.13;6197164;23;20017;-80
2022/10/25 05:54:05;;;;;;;8.13;4.38;;;;;;;12.71;100.00;101375.84;6222996;23;20043;-80
2022/10/25 05:56:32;;;;;;;12.18;4.65;;;;;;;12.67;100.00;101384.75;6195973;23;20053;-80
2022/10/25 05:59:10;;;;;;;11.88;4.78;;;;;;;12.66;100.00;101385.19;6222849;23;20020;-80
2022/10/25 06:01:39;;;;;;;18.55;4.72;;;;;;;12.66;100.00;101383.25;6222581;23;20016;-80
2022/10/25 06:04:06;;;;;;;12.93;4.68;;;;;;;12.67;100.00;101394.69;6223298;23;20473;-80
2022/10/25 06:06:34;;;;;;;6.78;4.15;;;;;;;12.69;100.00;101395.00;6222446;23;20017;-80
2022/10/25 06:09:01;;;;;;;9.13;4.20;;;;;;;12.69;100.00;101401.09;6223132;23;20023;-80
2022/10/25 06:11:28;;;;;;;11.23;4.55;;;;;;;12.69;100.00;101397.66;6222670;23;20047;-80
2022/10/25 06:13:55;;;;;;;10.13;4.85;;;;;;;12.69;100.00;101406.44;6222801;23;20487;-80
2022/10/25 06:16:21;;;;;;;8.45;4.45;;;;;;;12.70;100.00;101407.16;6222985;23;20096;-81
2022/10/25 06:18:48;;;;;;;7.97;4.10;;;;;;;12.71;100.00;101411.34;6223100;23;20013;-81
2022/10/25 06:21:18;;;;;;;10.30;4.65;;;;;;;12.71;100.00;101407.91;6221922;23;20013;-81
2022/10/25 06:23:45;;;;;;;11.70;4.78;;;;;;;12.72;100.00;101417.41;6221078;23;20063;-80
2022/10/25 06:26:14;;;;;;;11.15;4.30;;;;;;;12.72;100.00;101422.75;6220884;23;20096;-83
2022/10/25 06:28:41;;;;;;;6.90;4.50;;;;;;;12.72;100.00;101428.84;6220408;23;20089;-84
2022/10/25 06:31:13;;;;;;;9.15;4.95;;;;;;;12.70;100.00;101433.88;6221214;23;20044;-78
2022/10/25 06:33:41;;;;;;;16.52;5.43;;;;;;;12.71;100.00;101434.63;6223145;23;20013;-79
2022/10/25 06:36:18;;;;;;;7.95;4.97;;;;;;;12.71;100.00;101437.31;6223061;23;20017;-83
2022/10/25 06:38:46;;;;;;;9.75;5.07;;;;;;;12.70;100.00;101436.56;6223632;23;20152;-81
2022/10/25 06:41:16;;;;;;;8.75;5.30;;;;;;;12.71;100.00;101445.31;6223431;23;20017;-79
2022/10/25 06:43:42;;;;;;;13.38;5.68;;;;;;;12.68;100.00;101442.34;6222800;23;20017;-81
2022/10/25 06:46:27;;;;;;;12.82;6.05;;;;;;;12.66;100.00;101447.38;6221403;23;20056;-79
2022/10/25 06:48:54;;;;;;;14.35;5.80;;;;;;;12.62;100.00;101452.09;6221541;23;20069;-80
2022/10/25 06:51:22;;;;;;;12.40;5.68;;;;;;;12.60;100.00;101456.38;6221418;23;20092;-83
2022/10/25 06:53:53;;;;;;;7.60;5.50;;;;;;;12.59;100.00;101449.53;6221190;23;20100;-80
2022/10/25 06:56:20;;;;;;;7.25;5.30;;;;;;;12.58;100.00;101456.06;6221462;23;20052;-80
2022/10/25 06:58:46;;;;;;;9.77;6.13;;;;;;;12.59;100.00;101457.56;6220966;23;20025;-84
2022/10/25 07:01:17;;;;;;;14.27;5.63;;;;;;;12.61;100.00;101461.28;6221472;23;20017;-85
2022/10/25 07:03:44;;;;;;;9.68;5.40;;;;;;;12.63;100.00;101455.50;6195211;23;20501;-79
2022/10/25 07:06:17;;;;;;;13.23;5.47;;;;;;;12.62;100.00;101456.69;6194245;23;20487;-81
2022/10/25 07:08:45;;;;;;;9.85;5.25;;;;;;;12.60;100.00;101451.78;6194992;23;20013;-80
2022/10/25 07:11:17;;;;;;;9.90;5.50;;;;;;;12.57;100.00;101460.66;6221435;23;20037;-81
2022/10/25 07:13:44;;;;;;;10.10;5.47;;;;;;;12.57;100.00;101466.00;6220805;23;20502;-81
2022/10/25 07:16:13;;;;;;;15.57;5.72;;;;;;;12.57;100.00;101467.91;6221586;23;20425;-80
2022/10/25 07:18:40;;;;;;;10.52;5.95;;;;;;;12.57;100.00;101470.59;6221316;23;20120;-82
2022/10/25 07:21:11;;;;;;;9.57;5.32;;;;;;;12.59;100.00;101468.25;6221274;23;20161;-82
2022/10/25 07:23:41;;;;;;;9.48;5.53;;;;;;;12.60;100.00;101481.16;6221531;23;20164;-86
2022/10/25 07:26:18;;;;;;;6.30;4.97;;;;;;;12.64;100.00;101487.13;6221602;23;20079;-84
2022/10/25 07:28:47;;;;;;;10.27;5.22;;;;;;;12.65;100.00;101485.19;6221212;23;20104;-83
2022/10/25 07:31:29;;;;;;;8.35;5.28;;;;;;;12.67;100.00;101493.53;6221254;23;20017;-81
2022/10/25 07:34:00;;;;;;;18.88;5.82;;;;;;;12.70;100.00;101495.31;6221651;23;20076;-84
2022/10/25 07:36:27;;;;;;;10.68;5.80;;;;;;;12.72;100.00;101490.28;6221798;23;20092;-83
2022/10/25 07:38:55;;;;;;;10.35;5.43;;;;;;;12.73;100.00;101496.38;6221608;23;20017;-82
2022/10/25 07:41:22;;;;;;;11.73;5.93;;;;;;;12.80;100.00;101502.19;6220488;23;20009;-78
2022/10/25 07:43:48;;;;;;;8.38;5.47;;;;;;;12.85;100.00;101501.63;6221227;23;20080;-78
2022/10/25 07:46:15;;;;;;;11.02;5.70;;;;;;;12.92;100.00;101501.38;6189569;23;20033;-79
2022/10/25 07:48:41;;;;;;;10.43;5.72;;;;;;;12.99;99.43;101498.47;6192054;23;20048;-82
2022/10/25 07:51:13;;;;;;;9.73;5.82;;;;;;;13.07;99.71;101495.53;6192004;23;20727;-85
2022/10/25 07:53:40;;;;;;;8.75;5.43;;;;;;;13.09;99.50;101504.59;6192411;23;20037;-82
2022/10/25 07:56:11;;;;;;;11.50;6.28;;;;;;;13.08;99.20;101510.38;6191521;23;20121;-87
2022/10/25 07:58:37;;;;;;;9.35;6.32;;;;;;;13.13;99.37;101504.47;6193520;23;20010;-82
2022/10/25 08:01:07;;;;;;;12.05;5.95;;;;;;;13.20;99.15;101517.59;6194212;23;20069;-81
2022/10/25 08:03:34;;;;;;;9.32;6.15;;;;;;;13.22;99.08;101512.56;6194245;23;20013;-85
2022/10/25 08:06:01;;;;;;;12.50;6.20;;;;;;;13.24;98.80;101521.63;6191439;23;20048;-81
2022/10/25 08:08:29;;;;;;;12.13;6.05;;;;;;;13.24;98.85;101524.31;6191002;23;20025;-81
2022/10/25 08:10:56;;;;;;;8.30;6.25;;;;;;;13.38;98.86;101528.38;6190922;23;20044;-86
2022/10/25 08:13:23;;;;;;;13.07;6.80;;;;;;;13.58;98.69;101520.00;6192096;23;20129;-81
2022/10/25 08:15:50;;;;;;;9.45;6.13;;;;;;;13.66;97.49;101529.22;6191063;23;20503;-87
2022/10/25 08:18:17;;;;;;;11.25;5.97;;;;;;;13.65;97.07;101525.06;6193634;23;20116;-90
2022/10/25 08:20:44;;;;;;;11.73;5.82;;;;;;;13.64;96.72;101529.66;6192497;23;20093;-85
2022/10/25 08:23:30;;;;;;;10.40;5.78;;;;;;;13.59;96.76;101530.25;6193066;23;20059;-93
2022/10/25 08:25:57;;;;;;;11.57;5.78;;;;;;;13.55;97.00;101532.31;6194879;23;20018;-91
2022/10/25 08:28:23;;;;;;;14.25;6.32;;;;;;;13.53;96.90;101525.94;6191309;23;20143;-77
2022/10/25 08:30:52;;;;;;;9.35;5.43;;;;;;;13.51;97.16;101537.06;6189290;23;20101;-78
2022/10/25 08:33:19;;;;;;;11.80;5.90;;;;;;;13.54;96.93;101543.47;6190751;23;20055;-78
2022/10/25 08:35:45;;;;;;;19.00;6.05;;;;;;;13.56;96.83;101544.53;6188899;23;20145;-78
2022/10/25 08:38:11;;;;;;;8.55;6.45;;;;;;;13.57;96.60;101550.63;6189067;23;20093;-77
2022/10/25 08:40:53;;;;;;;12.18;6.13;;;;;;;13.56;96.59;101543.78;6189804;23;20097;-76
2022/10/25 08:43:31;;;;;;;6.85;5.97;;;;;;;13.58;96.69;101538.72;6190561;23;20475;-78
2022/10/25 08:46:07;;;;;;;8.98;6.18;;;;;;;13.67;97.08;101541.41;6202873;23;20518;-78
2022/10/25 08:48:40;;;;;;;8.10;6.05;;;;;;;13.78;95.77;101546.34;6220311;23;20084;-79
2022/10/25 08:51:26;;;;;;;12.63;6.07;;;;;;;13.82;95.11;101558.41;6220637;23;20084;-78
2022/10/25 08:53:57;;;;;;;10.57;6.72;;;;;;;13.80;94.84;101552.75;6220281;23;20061;-81
2022/10/25 08:56:25;;;;;;;10.05;6.57;;;;;;;13.82;94.98;101571.81;6220425;23;20045;-82
2022/10/25 08:58:59;;;;;;;7.93;6.43;;;;;;;13.80;95.27;101562.72;6220768;23;20100;-78
2022/10/25 09:01:35;;;;;;;11.05;6.15;;;;;;;13.80;94.49;101568.81;6220952;23;20076;-81
2022/10/25 09:04:01;;;;;;;9.90;5.82;;;;;;;13.83;94.12;101575.97;6220656;23;20017;-79
2022/10/25 09:06:35;;;;;;;7.63;5.88;;;;;;;13.91;94.07;101581.78;6219868;23;20036;-81
2022/10/25 09:09:25;;;;;;;157.70;102.25;;;;;;;14.17;94.37;101579.63;6219224;23;20049;-81
2022/10/25 09:12:33;;;;;;;13.57;7.63;;;;;;;14.13;92.74;101582.44;6220072;23;20120;-81
2022/10/25 09:15:08;;;;;;;11.48;6.40;;;;;;;14.11;92.84;101587.47;6214703;23;20055;-82
2022/10/25 09:17:47;;;;;;;9.13;5.63;;;;;;;14.14;92.36;101588.53;6220318;23;20100;-82
2022/10/25 09:20:24;;;;;;;9.40;5.90;;;;;;;14.11;92.32;101589.41;6193327;23;20477;-81
2022/10/25 09:23:08;;;;;;;15.73;6.00;;;;;;;14.12;92.52;101590.91;6220092;23;20024;-81
2022/10/25 09:25:52;;;;;;;11.20;5.63;;;;;;;14.20;92.30;101592.88;6220820;23;20017;-81
2022/10/25 09:28:43;;;;;;;7.75;5.75;;;;;;;14.38;91.82;101591.41;6220886;23;20493;-82
2022/10/25 09:31:15;;;;;;;10.77;5.57;;;;;;;14.47;90.53;101597.53;6220624;23;20096;-81
2022/10/25 09:33:45;;;;;;;10.15;5.43;;;;;;;14.55;89.97;101593.38;6220526;23;20084;-82
2022/10/25 09:36:13;;;;;;;9.40;5.68;;;;;;;14.61;89.56;101596.22;6220405;23;20019;-80
2022/10/25 09:38:50;;;;;;;11.90;5.68;;;;;;;14.66;90.52;101595.63;6219991;23;20460;-83
2022/10/25 09:41:27;;;;;;;7.57;5.65;;;;;;;14.81;89.94;101599.16;6220427;23;20044;-82
2022/10/25 09:44:00;;;;;;;8.93;5.78;;;;;;;14.91;90.04;101597.25;6220666;23;20202;-84
2022/10/25 09:46:41;;;;;;;9.85;5.78;;;;;;;15.02;89.17;101594.84;6220112;23;20092;-81
2022/10/25 09:49:21;;;;;;;;;;;;;;;15.12;90.38;101611.69;6220800;23;20132;-83
2022/10/25 09:52:16;;;;;;;10.07;5.63;;;;;;;15.17;88.89;101609.13;6220138;23;20007;-82
2022/10/25 09:55:17;;;;;;;9.10;5.68;;;;;;;15.29;88.53;101610.13;6220435;23;20084;-82
2022/10/25 09:57:45;;;;;;;8.93;6.00;;;;;;;15.21;88.09;101612.38;6219980;23;20021;-83
2022/10/25 10:00:13;;;;;;;9.85;5.50;;;;;;;15.27;87.95;101615.19;6220332;23;20096;-82
2022/10/25 10:02:40;;;;;;;9.38;5.45;;;;;;;15.30;87.16;101617.00;6193412;23;20021;-82
2022/10/25 10:05:20;;;;;;;11.82;5.70;;;;;;;15.22;86.73;101616.56;6220187;23;20013;-81
2022/10/25 10:07:48;;;;;;;11.50;5.63;;;;;;;15.04;87.14;101624.63;6219600;23;20028;-84
2022/10/25 10:10:19;;;;;;;11.75;6.20;;;;;;;14.90;87.19;101625.25;6220207;23;20096;-82
2022/10/25 10:13:00;;;;;;;7.80;5.07;;;;;;;14.79;88.26;101624.97;6220255;23;20024;-82
2022/10/25 10:15:30;;;;;;;9.00;5.85;;;;;;;14.70;88.37;101620.34;6220360;23;20013;-81
2022/10/25 10:18:22;;;;;;;12.40;5.53;;;;;;;14.65;89.01;101619.00;6220178;23;20021;-82
2022/10/25 10:21:01;;;;;;;10.48;5.13;;;;;;;14.65;88.61;101626.28;6193567;23;20025;-82
2022/10/25 10:23:32;;;;;;;6.25;4.97;;;;;;;14.74;88.55;101626.28;6221831;23;20084;-77
2022/10/25 10:26:10;;;;;;;10.45;5.95;;;;;;;14.84;88.29;101630.44;6221775;23;20013;-83
2022/10/25 10:28:37;;;;;;;9.30;5.65;;;;;;;14.94;88.44;101623.91;6222400;23;20084;-79
2022/10/25 10:31:06;;;;;;;8.48;5.82;;;;;;;15.11;87.83;101637.75;6221654;23;20017;-78
2022/10/25 10:33:33;;;;;;;15.35;7.18;;;;;;;15.17;87.29;101621.81;6221544;23;20088;-79
2022/10/25 10:36:24;;;;;;;8.05;5.65;;;;;;;15.37;87.24;101630.09;6220974;23;20439;-79
2022/10/25 10:38:51;;;;;;;6.95;5.40;;;;;;;15.44;86.94;101635.16;6221504;23;20073;-82
2022/10/25 10:41:28;;;;;;;8.85;5.43;;;;;;;15.45;86.09;101635.88;6222634;23;20045;-82
2022/10/25 10:44:13;;;;;;;11.40;6.20;;;;;;;15.51;85.85;101640.19;6221800;23;20088;-83
2022/10/25 10:46:45;;;;;;;10.88;6.00;;;;;;;15.48;85.44;101645.72;6222156;23;20089;-88
2022/10/25 10:49:13;;;;;;;13.43;6.78;;;;;;;15.43;84.79;101640.97;6221464;23;20500;-85
2022/10/25 10:51:43;;;;;;;14.93;6.43;;;;;;;15.51;85.95;101652.88;6221291;23;20096;-84
2022/10/25 10:54:23;;;;;;;6.90;6.03;;;;;;;15.59;85.82;101646.78;6221595;23;20013;-83
2022/10/25 10:57:03;;;;;;;7.32;6.45;;;;;;;15.67;84.84;101642.53;6222416;23;20094;-82
2022/10/25 10:59:36;;;;;;;6.78;6.00;;;;;;;15.83;83.66;101641.47;6221567;23;20044;-85
2022/10/25 11:02:32;;;;;;;11.18;6.07;;;;;;;15.83;83.73;101651.44;6221472;23;20085;-84
2022/10/25 11:04:58;;;;;;;12.57;5.35;;;;;;;15.86;82.63;101643.25;6189166;23;20020;-78
2022/10/25 11:07:33;;;;;;;11.93;6.03;;;;;;;15.84;82.94;101656.38;6221274;23;20440;-81
2022/10/25 11:10:33;;;;;;;9.23;5.80;;;;;;;15.88;83.51;101654.28;6221797;23;20217;-79
2022/10/25 11:13:16;;;;;;;8.32;5.70;;;;;;;15.80;83.49;101658.47;6177572;23;20092;-79
2022/10/25 11:16:17;;;;;;;9.38;6.10;;;;;;;15.83;83.59;101654.13;6220982;23;20087;-79
2022/10/25 11:19:23;;;;;;;11.50;5.70;;;;;;;15.90;83.53;101653.81;6220722;23;20017;-81
2022/10/25 11:22:09;;;;;;;11.07;5.13;;;;;;;15.92;81.45;101664.84;6200213;23;20020;-79
2022/10/25 11:24:40;;;;;;;14.35;5.43;;;;;;;15.98;81.93;101655.72;6221504;23;20059;-79
2022/10/25 11:27:07;;;;;;;;;;;;;;;16.05;84.05;101665.38;6221957;23;20048;-79
2022/10/25 11:30:04;;;;;;;13.25;6.05;;;;;;;16.10;82.55;101664.75;6220996;23;19944;-79
2022/10/25 11:32:53;;;;;;;11.52;5.97;;;;;;;16.10;82.29;101667.44;6193853;23;20454;-79
2022/10/25 11:35:47;;;;;;;9.43;5.05;;;;;;;16.12;82.58;101664.28;6220582;23;20045;-78